Time;durP1;ratioP1;P1;durP2;ratioP2;P2;SDS_P1;SDS_P2;PMS_P1;PMS_P2;Temp;Humidity;BMP_temperature;BMP_pressure;BME280_temperature;BME280_humidity;BME280_pressure;Samples;Min_cycle;Max_cycle;Signal;HPM_P1;HPM_P2
2021/12/30 00:01:46;;;;;;;2.57;2.00;;;;;;;11.56;97.46;100268.66;4952918;29;20512;-79
2021/12/30 00:04:12;;;;;;;2.97;2.50;;;;;;;11.60;97.24;100268.97;4952957;29;20512;-80
2021/12/30 00:06:40;;;;;;;8.18;2.40;;;;;;;11.60;97.23;100268.97;4953155;29;20410;-79
2021/12/30 00:09:14;;;;;;;1.88;1.42;;;;;;;11.58;96.99;100271.97;4951749;29;20413;-79
2021/12/30 00:11:40;;;;;;;4.38;1.85;;;;;;;11.59;97.15;100279.00;4952949;29;20454;-79
2021/12/30 00:14:05;;;;;;;2.70;1.43;;;;;;;11.58;96.84;100288.25;4933336;29;20966;-80
2021/12/30 00:16:31;;;;;;;1.70;1.60;;;;;;;11.61;96.85;100297.75;4951909;29;20569;-79
2021/12/30 00:18:56;;;;;;;4.50;1.63;;;;;;;11.61;97.00;100303.19;4935627;29;20405;-79
2021/12/30 00:21:23;;;;;;;2.43;1.30;;;;;;;11.64;96.87;100308.09;4952873;29;20398;-80
2021/12/30 00:23:49;;;;;;;2.75;1.35;;;;;;;11.69;96.99;100314.41;4952642;29;20448;-79
2021/12/30 00:26:14;;;;;;;1.17;1.13;;;;;;;11.73;97.03;100321.00;4952959;29;20402;-80
2021/12/30 00:28:40;;;;;;;2.70;0.97;;;;;;;11.76;96.99;100315.06;4951703;28;20425;-80
2021/12/30 00:31:06;;;;;;;1.10;1.00;;;;;;;11.83;96.78;100317.56;4952298;28;20410;-79
2021/12/30 00:33:34;;;;;;;1.30;1.20;;;;;;;11.88;96.64;100315.75;4952829;29;20493;-79
2021/12/30 00:36:08;;;;;;;1.30;1.15;;;;;;;11.83;96.23;100312.13;4938913;29;20420;-79
2021/12/30 00:38:38;;;;;;;1.60;1.30;;;;;;;11.79;96.15;100317.25;4948202;29;20481;-80
2021/12/30 00:41:03;;;;;;;3.00;1.17;;;;;;;11.75;96.09;100320.75;4936654;29;20920;-80
2021/12/30 00:43:29;;;;;;;0.93;0.75;;;;;;;11.72;96.42;100332.91;4953850;28;20422;-80
2021/12/30 00:45:54;;;;;;;1.40;1.30;;;;;;;11.74;96.68;100332.69;4944281;28;20891;-79
2021/12/30 00:48:20;;;;;;;2.23;1.30;;;;;;;11.80;96.72;100339.78;4949970;29;20791;-80
2021/12/30 00:50:47;;;;;;;2.07;1.10;;;;;;;11.82;96.23;100346.59;4946836;29;21209;-79
2021/12/30 00:53:12;;;;;;;0.87;0.87;;;;;;;11.82;96.17;100346.59;4955801;29;20401;-79
2021/12/30 00:55:39;;;;;;;1.47;0.87;;;;;;;11.77;96.05;100351.16;4956125;29;20401;-80
2021/12/30 00:58:05;;;;;;;3.30;1.20;;;;;;;11.76;96.44;100354.94;4954975;28;20414;-79
2021/12/30 01:00:32;;;;;;;2.97;1.25;;;;;;;11.73;96.53;100347.31;4954936;28;20933;-80
2021/12/30 01:02:57;;;;;;;2.45;1.40;;;;;;;11.74;96.61;100347.06;4949273;28;20413;-80
2021/12/30 01:05:23;;;;;;;3.83;1.38;;;;;;;11.76;96.57;100355.78;4955688;29;20393;-79
2021/12/30 01:07:48;;;;;;;1.60;1.10;;;;;;;11.78;96.93;100367.22;4938487;29;20398;-79
2021/12/30 01:10:16;;;;;;;2.20;1.80;;;;;;;11.81;96.69;100368.59;4955724;29;20408;-79
2021/12/30 01:12:42;;;;;;;2.85;1.00;;;;;;;11.81;96.66;100372.13;4954889;29;20512;-79
2021/12/30 01:15:11;;;;;;;1.70;0.90;;;;;;;11.80;96.50;100359.63;4954839;28;21087;-79
2021/12/30 01:20:09;;;;;;;1.17;1.00;;;;;;;11.71;96.50;100379.34;4955554;29;20401;-79
2021/12/30 01:22:34;;;;;;;2.87;1.47;;;;;;;11.71;96.49;100382.06;4940183;29;20409;-79
2021/12/30 01:25:00;;;;;;;2.17;1.20;;;;;;;11.71;96.33;100376.63;4937580;28;20401;-79
2021/12/30 01:27:26;;;;;;;1.65;1.10;;;;;;;11.70;96.51;100372.22;4955322;29;20405;-79
2021/12/30 01:29:52;;;;;;;2.17;1.30;;;;;;;11.73;96.87;100377.19;4938260;29;20468;-79
2021/12/30 01:32:17;;;;;;;1.63;1.20;;;;;;;11.79;96.61;100379.69;4955038;28;20797;-80
2021/12/30 01:34:42;;;;;;;5.20;1.20;;;;;;;11.84;96.44;100387.09;4938008;29;20485;-79
2021/12/30 01:37:08;;;;;;;3.03;1.10;;;;;;;11.89;96.56;100385.25;4955289;29;20404;-79
2021/12/30 01:39:38;;;;;;;4.97;1.17;;;;;;;11.95;96.33;100397.00;4944332;29;20764;-79
2021/12/30 01:42:06;;;;;;;2.05;0.93;;;;;;;12.00;96.14;100396.22;4954159;29;20434;-79
2021/12/30 01:44:33;;;;;;;3.80;1.00;;;;;;;12.03;95.75;100395.69;4953967;28;20432;-80
2021/12/30 01:46:59;;;;;;;3.78;1.00;;;;;;;12.07;95.67;100396.84;4955058;29;20394;-79
2021/12/30 01:49:24;;;;;;;5.00;2.50;;;;;;;12.08;95.75;100399.31;4937765;29;20402;-79
2021/12/30 01:51:52;;;;;;;1.20;0.82;;;;;;;12.10;95.49;100399.03;4953649;28;21021;-79
2021/12/30 01:54:18;;;;;;;1.52;0.85;;;;;;;12.10;95.41;100402.59;4953983;28;20430;-79
2021/12/30 01:56:44;;;;;;;2.47;1.20;;;;;;;12.10;95.40;100412.63;4954213;28;20414;-79
2021/12/30 01:59:10;;;;;;;2.10;0.90;;;;;;;12.10;95.46;100418.06;4936633;29;20495;-79
2021/12/30 02:01:35;;;;;;;3.50;0.70;;;;;;;12.11;95.15;100423.25;4954552;29;20457;-80
2021/12/30 02:04:01;;;;;;;1.20;1.10;;;;;;;12.12;95.16;100437.66;4950154;29;20433;-79
2021/12/30 02:06:27;;;;;;;2.22;0.75;;;;;;;12.13;95.00;100447.41;4940709;28;20909;-79
2021/12/30 02:08:53;;;;;;;1.70;0.97;;;;;;;12.12;95.03;100437.66;4942542;29;20402;-79
2021/12/30 02:11:19;;;;;;;3.50;0.90;;;;;;;12.13;95.15;100431.13;4943434;28;20421;-79
2021/12/30 02:13:47;;;;;;;2.92;1.00;;;;;;;12.13;95.08;100436.56;4952914;28;20417;-79
2021/12/30 02:16:15;;;;;;;4.43;0.90;;;;;;;12.13;94.84;100436.56;4953149;29;20930;-79
2021/12/30 02:18:40;;;;;;;2.35;0.80;;;;;;;12.13;95.14;100431.13;4953591;28;20919;-80
2021/12/30 02:21:05;;;;;;;0.97;0.90;;;;;;;12.12;95.08;100434.94;4954292;29;20426;-80
2021/12/30 02:23:34;;;;;;;3.60;0.70;;;;;;;12.11;94.61;100436.00;4953466;29;20464;-79
2021/12/30 02:26:03;;;;;;;4.75;1.20;;;;;;;12.06;94.90;100434.03;4954245;29;20408;-79
2021/12/30 02:28:30;;;;;;;0.80;0.80;;;;;;;12.03;95.00;100433.72;4933691;29;20400;-79
2021/12/30 02:30:58;;;;;;;2.58;1.05;;;;;;;11.98;95.19;100434.50;4935444;29;20402;-79
2021/12/30 02:33:25;;;;;;;1.23;0.77;;;;;;;11.97;95.36;100435.56;4935607;28;20439;-79
2021/12/30 02:35:51;;;;;;;1.92;1.30;;;;;;;11.93;95.49;100439.88;4954046;29;20398;-80
2021/12/30 02:38:18;;;;;;;1.80;0.75;;;;;;;11.90;95.45;100440.38;4954095;29;20935;-79
2021/12/30 02:40:49;;;;;;;1.80;0.73;;;;;;;11.87;95.63;100444.44;4936701;29;20425;-79
2021/12/30 02:43:17;;;;;;;1.90;0.90;;;;;;;11.84;95.70;100436.78;4939072;29;20428;-80
2021/12/30 02:45:43;;;;;;;3.08;1.02;;;;;;;11.86;95.92;100444.66;4935894;29;20416;-79
2021/12/30 02:48:21;;;;;;;2.28;0.90;;;;;;;11.89;95.88;100452.31;4935828;29;20413;-79
2021/12/30 02:50:48;;;;;;;3.10;0.90;;;;;;;11.92;95.90;100454.53;4936495;29;20405;-79
2021/12/30 02:53:14;;;;;;;4.35;0.80;;;;;;;11.93;95.77;100450.72;4953108;28;20928;-79
2021/12/30 02:55:41;;;;;;;1.77;0.93;;;;;;;11.88;95.52;100456.13;4953925;29;20489;-79
2021/12/30 02:58:07;;;;;;;4.70;1.70;;;;;;;11.89;95.87;100457.75;4953859;29;20806;-80
2021/12/30 03:00:32;;;;;;;1.20;0.82;;;;;;;11.90;96.22;100462.94;4953225;28;20414;-79
2021/12/30 03:02:58;;;;;;;2.37;0.90;;;;;;;11.93;96.18;100467.03;4934819;29;20766;-80
2021/12/30 03:05:24;;;;;;;0.73;0.73;;;;;;;11.96;96.04;100464.63;4948533;29;20450;-79
2021/12/30 03:07:54;;;;;;;3.80;1.20;;;;;;;11.99;96.02;100467.94;4953638;29;20409;-79
2021/12/30 03:10:23;;;;;;;2.88;1.15;;;;;;;11.97;96.09;100460.03;4953548;29;20405;-80
2021/12/30 03:13:04;;;;;;;1.20;0.95;;;;;;;11.98;95.91;100464.38;4953666;29;20797;-79
2021/12/30 03:15:29;;;;;;;2.50;1.02;;;;;;;11.99;95.69;100462.50;4953882;29;20394;-79
2021/12/30 03:17:55;;;;;;;3.55;1.50;;;;;;;11.99;96.12;100463.28;4952245;28;20743;-79
2021/12/30 03:20:20;;;;;;;3.33;0.98;;;;;;;11.99;96.12;100467.94;4953598;29;20440;-79
2021/12/30 03:22:45;;;;;;;2.17;1.07;;;;;;;11.98;96.14;100477.13;4953350;29;20573;-79
2021/12/30 03:25:14;;;;;;;3.60;1.08;;;;;;;11.99;95.90;100481.50;4953405;29;20537;-79
2021/12/30 03:27:40;;;;;;;1.52;0.80;;;;;;;12.01;96.06;100476.63;4952707;28;20417;-79
2021/12/30 03:30:10;;;;;;;3.47;1.83;;;;;;;12.01;96.02;100477.47;4953548;29;20531;-79
2021/12/30 03:32:36;;;;;;;2.08;1.20;;;;;;;12.02;95.90;100483.72;4952642;28;20512;-79
2021/12/30 03:35:01;;;;;;;2.30;1.20;;;;;;;12.00;96.24;100483.13;4919094;29;20472;-79
2021/12/30 03:37:27;;;;;;;2.87;0.97;;;;;;;12.02;96.32;100491.84;4929681;29;20473;-79
2021/12/30 03:39:52;;;;;;;3.08;1.58;;;;;;;12.02;96.27;100498.09;4951590;28;20402;-79
2021/12/30 03:42:17;;;;;;;0.90;0.90;;;;;;;12.04;96.51;100493.25;4953417;29;20394;-79
2021/12/30 03:44:43;;;;;;;3.70;1.40;;;;;;;12.08;96.55;100494.38;4953261;29;20428;-79
2021/12/30 03:47:13;;;;;;;2.75;1.25;;;;;;;12.07;96.50;100503.59;4952818;28;20445;-79
2021/12/30 03:49:43;;;;;;;2.30;1.00;;;;;;;12.05;96.50;100504.94;4952306;29;20430;-80
2021/12/30 03:52:09;;;;;;;1.85;1.23;;;;;;;12.07;96.38;100508.19;4950814;29;20397;-79
2021/12/30 03:54:34;;;;;;;3.92;0.95;;;;;;;12.06;96.09;100507.38;4946381;28;20518;-80
2021/12/30 03:56:59;;;;;;;0.97;0.80;;;;;;;12.07;96.09;100508.19;4952619;28;20798;-79
2021/12/30 03:59:25;;;;;;;4.47;0.93;;;;;;;12.09;96.35;100514.19;4953236;29;20402;-79
2021/12/30 04:01:50;;;;;;;2.10;0.90;;;;;;;12.11;96.51;100521.03;4937783;29;20486;-79
2021/12/30 04:04:15;;;;;;;1.57;0.90;;;;;;;12.11;96.36;100518.31;4952393;28;20421;-79
2021/12/30 04:06:40;;;;;;;1.57;0.77;;;;;;;12.15;96.28;100524.06;4953188;29;20824;-79
2021/12/30 04:09:06;;;;;;;1.33;0.70;;;;;;;12.16;96.25;100520.25;4942586;28;20409;-79
2021/12/30 04:11:34;;;;;;;0.80;0.70;;;;;;;12.16;96.20;100523.81;4952987;29;20405;-79
2021/12/30 04:14:00;;;;;;;2.78;0.80;;;;;;;12.11;96.41;100523.75;4952974;29;20426;-79
2021/12/30 04:16:26;;;;;;;1.85;0.85;;;;;;;12.09;96.54;100522.34;4955464;28;20401;-79
2021/12/30 04:18:51;;;;;;;2.57;0.90;;;;;;;12.10;96.36;100524.81;4955831;29;20476;-79
2021/12/30 04:21:19;;;;;;;4.73;1.13;;;;;;;12.11;96.68;100525.66;4955695;28;20412;-80
2021/12/30 04:23:44;;;;;;;2.05;1.15;;;;;;;12.11;96.42;100528.38;4956309;29;20422;-79
2021/12/30 04:26:10;;;;;;;2.80;1.40;;;;;;;12.10;96.34;100524.00;4955378;28;20405;-80
2021/12/30 04:28:35;;;;;;;3.28;2.17;;;;;;;12.09;97.01;100520.44;4956617;29;20885;-79
2021/12/30 04:31:01;;;;;;;2.30;1.80;;;;;;;12.09;97.07;100525.06;4956537;29;20386;-79
2021/12/30 04:33:26;;;;;;;2.73;1.93;;;;;;;12.11;97.00;100526.47;4955274;29;20481;-79
2021/12/30 04:35:56;;;;;;;2.50;1.50;;;;;;;12.14;96.95;100538.72;4956272;29;20430;-80
2021/12/30 04:38:22;;;;;;;1.42;1.02;;;;;;;12.13;96.70;100534.34;4956328;29;20892;-79
2021/12/30 04:40:47;;;;;;;4.23;1.00;;;;;;;12.12;97.08;100541.69;4955425;28;20414;-79
2021/12/30 04:43:13;;;;;;;4.47;1.00;;;;;;;12.10;96.93;100529.44;4955448;28;20418;-79
2021/12/30 04:45:38;;;;;;;1.77;1.13;;;;;;;12.10;96.89;100532.97;4956203;28;20798;-79
2021/12/30 04:48:04;;;;;;;4.50;0.80;;;;;;;12.08;96.83;100534.31;4955441;28;20886;-79
2021/12/30 04:50:29;;;;;;;1.08;0.80;;;;;;;12.10;96.73;100535.69;4938882;29;20731;-79
2021/12/30 04:52:54;;;;;;;2.80;0.60;;;;;;;12.12;96.86;100541.69;4954651;28;20405;-79
2021/12/30 04:55:20;;;;;;;3.00;1.30;;;;;;;12.16;96.71;100544.72;4938084;29;20777;-79
2021/12/30 04:57:45;;;;;;;2.53;0.60;;;;;;;12.15;96.34;100545.81;4938825;28;20417;-79
2021/12/30 05:00:12;;;;;;;0.90;0.43;;;;;;;12.19;96.76;100565.94;4955612;28;20413;-79
2021/12/30 05:05:21;;;;;;;1.73;0.98;;;;;;;12.27;96.39;100562.78;4949536;28;20456;-80
2021/12/30 05:07:47;;;;;;;2.45;0.45;;;;;;;12.31;96.25;100563.94;4955067;29;20413;-79
2021/12/30 05:10:12;;;;;;;2.90;0.40;;;;;;;12.34;95.77;100564.25;4967727;28;20748;-79
2021/12/30 05:12:37;;;;;;;1.47;0.47;;;;;;;12.38;96.09;100572.72;4953900;28;20406;-80
2021/12/30 05:15:03;;;;;;;1.10;0.40;;;;;;;12.43;95.85;100568.16;4930918;29;20426;-80
2021/12/30 05:17:29;;;;;;;1.45;0.20;;;;;;;12.46;95.49;100567.66;4954786;28;20449;-79
2021/12/30 05:19:55;;;;;;;0.30;0.30;;;;;;;12.49;95.00;100556.25;4954760;29;20409;-79
2021/12/30 05:22:20;;;;;;;0.40;0.30;;;;;;;12.57;95.44;100567.75;4955604;29;20991;-80
2021/12/30 05:24:45;;;;;;;1.80;0.40;;;;;;;12.64;94.84;100571.09;4955580;29;20428;-80
2021/12/30 05:27:11;;;;;;;0.50;0.20;;;;;;;12.69;95.03;100571.97;4954565;28;20405;-80
2021/12/30 05:29:36;;;;;;;0.10;0.10;;;;;;;12.72;94.45;100573.34;4966137;28;20409;-79
2021/12/30 05:32:02;;;;;;;1.20;0.20;;;;;;;12.72;94.09;100573.34;4956372;28;20927;-79
2021/12/30 05:34:27;;;;;;;0.20;0.20;;;;;;;12.70;94.54;100584.50;4954952;29;20417;-79
2021/12/30 05:36:52;;;;;;;0.87;0.10;;;;;;;12.78;94.11;100578.59;4950834;28;20417;-79
2021/12/30 05:39:17;;;;;;;0.33;0.20;;;;;;;12.84;93.80;100572.13;4953656;29;20414;-79
2021/12/30 05:41:43;;;;;;;2.40;0.20;;;;;;;12.81;93.29;100572.63;4954993;29;20417;-79
2021/12/30 05:44:08;;;;;;;0.30;0.30;;;;;;;12.77;93.70;100559.81;4944468;29;20433;-79
2021/12/30 05:46:34;;;;;;;0.10;0.10;;;;;;;12.74;93.94;100558.44;4950840;28;20417;-79
2021/12/30 05:49:00;;;;;;;0.43;0.20;;;;;;;12.74;93.60;100573.94;4939643;29;21008;-79
2021/12/30 05:51:25;;;;;;;0.17;0.17;;;;;;;12.74;93.69;100582.09;4969725;28;20497;-80
2021/12/30 05:53:50;;;;;;;0.93;0.30;;;;;;;12.72;93.96;100585.06;4954784;29;20433;-79
2021/12/30 05:56:16;;;;;;;0.87;0.23;;;;;;;12.72;94.21;100593.22;4947326;28;20421;-79
2021/12/30 05:58:41;;;;;;;1.47;0.20;;;;;;;12.75;94.25;100594.59;4949118;28;20409;-79
2021/12/30 06:01:06;;;;;;;0.10;0.10;;;;;;;12.71;93.79;100599.72;4920778;29;20770;-79
2021/12/30 06:03:31;;;;;;;0.50;0.10;;;;;;;12.74;93.73;100604.66;4954003;29;20508;-79
2021/12/30 06:05:57;;;;;;;1.10;0.20;;;;;;;12.74;94.18;100607.38;4954508;28;20409;-79
2021/12/30 06:08:22;;;;;;;1.07;0.97;;;;;;;12.76;93.90;100615.28;4934389;28;20413;-79
2021/12/30 06:10:47;;;;;;;2.30;2.10;;;;;;;12.76;93.60;100599.78;4943263;28;20416;-79
2021/12/30 06:13:13;;;;;;;1.50;0.90;;;;;;;12.76;93.64;100610.66;4933608;28;20897;-79
2021/12/30 06:15:39;;;;;;;2.00;1.08;;;;;;;12.77;93.81;100608.78;4946009;28;20402;-79
2021/12/30 06:18:04;;;;;;;1.10;0.80;;;;;;;12.77;93.52;100617.75;4950937;28;20406;-79
2021/12/30 06:20:30;;;;;;;0.50;0.47;;;;;;;12.77;93.70;100616.94;4936660;29;20523;-79
2021/12/30 06:22:56;;;;;;;1.20;1.05;;;;;;;12.75;93.71;100617.16;4954535;28;20747;-80
2021/12/30 06:25:22;;;;;;;1.08;0.40;;;;;;;12.76;93.66;100626.16;4949167;28;20421;-79
2021/12/30 06:27:48;;;;;;;1.10;0.40;;;;;;;12.77;93.43;100630.53;4951726;29;20738;-79
2021/12/30 06:30:13;;;;;;;0.30;0.30;;;;;;;12.76;94.04;100628.88;4951182;28;20445;-80
2021/12/30 06:32:40;;;;;;;2.22;0.80;;;;;;;12.74;93.53;100637.31;4934156;28;20775;-79
2021/12/30 06:35:10;;;;;;;0.60;0.60;;;;;;;12.75;93.71;100636.22;4938874;29;20480;-79
2021/12/30 06:37:37;;;;;;;5.30;3.20;;;;;;;12.80;93.38;100638.16;4949561;29;20816;-79
2021/12/30 06:40:04;;;;;;;4.93;2.92;;;;;;;12.78;93.59;100632.97;4945232;29;20857;-79
2021/12/30 06:42:30;;;;;;;5.32;3.47;;;;;;;12.79;93.47;100633.81;4947480;28;20425;-79
2021/12/30 06:44:55;;;;;;;4.07;2.30;;;;;;;12.80;93.33;100644.44;4951444;28;20418;-79
2021/12/30 06:47:20;;;;;;;7.87;4.77;;;;;;;12.79;93.30;100645.50;4953805;29;20397;-79
2021/12/30 06:49:45;;;;;;;8.50;4.27;;;;;;;12.78;93.54;100656.63;4951479;28;20410;-79
2021/12/30 06:52:12;;;;;;;3.90;3.15;;;;;;;12.78;93.20;100659.34;4942802;29;20406;-79
2021/12/30 06:54:39;;;;;;;1.15;1.10;;;;;;;12.79;93.33;100663.72;4953721;29;20892;-80
2021/12/30 06:57:06;;;;;;;0.90;0.90;;;;;;;12.79;93.29;100669.97;4953599;28;20402;-80
2021/12/30 06:59:32;;;;;;;2.00;1.05;;;;;;;12.78;93.43;100672.94;4953342;28;20410;-79
2021/12/30 07:01:57;;;;;;;0.90;0.73;;;;;;;12.76;93.34;100666.94;4936602;29;20548;-80
2021/12/30 07:04:26;;;;;;;0.77;0.40;;;;;;;12.79;93.22;100674.59;4951166;29;20429;-79
2021/12/30 07:06:52;;;;;;;1.65;0.40;;;;;;;12.84;92.98;100672.75;4952738;28;20482;-79
2021/12/30 07:09:19;;;;;;;0.70;0.20;;;;;;;12.83;93.20;100682.00;4954474;28;20406;-79
2021/12/30 07:11:44;;;;;;;3.00;0.47;;;;;;;12.82;93.60;100688.50;4942721;29;20425;-79
2021/12/30 07:14:09;;;;;;;2.30;1.00;;;;;;;12.87;92.90;100698.63;4952164;28;20913;-79
2021/12/30 07:16:35;;;;;;;1.37;0.33;;;;;;;12.89;93.14;100710.91;4934325;28;20495;-79
2021/12/30 07:19:00;;;;;;;0.20;0.20;;;;;;;12.89;92.84;100710.06;4945774;28;20413;-79
2021/12/30 07:21:25;;;;;;;0.87;0.20;;;;;;;12.88;92.80;100705.69;4952687;29;20751;-79
2021/12/30 07:23:51;;;;;;;2.20;0.30;;;;;;;12.88;93.29;100713.84;4936121;29;20433;-79
2021/12/30 07:26:16;;;;;;;2.70;0.23;;;;;;;12.89;92.86;100713.63;4952690;29;20402;-79
2021/12/30 07:28:41;;;;;;;0.40;0.37;;;;;;;12.94;93.05;100727.28;4952900;28;20413;-79
2021/12/30 07:31:07;;;;;;;0.20;0.10;;;;;;;12.96;92.69;100730.56;4952493;28;20414;-79
2021/12/30 07:33:32;;;;;;;0.80;0.30;;;;;;;12.96;92.74;100729.75;4933634;28;20643;-79
2021/12/30 07:35:58;;;;;;;0.30;0.30;;;;;;;12.97;92.79;100725.97;4950937;29;20490;-79
2021/12/30 07:38:23;;;;;;;0.40;0.30;;;;;;;12.99;92.47;100724.63;4933474;29;20768;-80
2021/12/30 07:40:49;;;;;;;0.80;0.30;;;;;;;13.00;92.57;100734.44;4952701;29;20405;-79
2021/12/30 07:43:14;;;;;;;0.80;0.30;;;;;;;13.01;92.67;100741.50;4949577;28;20420;-80
2021/12/30 07:45:39;;;;;;;0.33;0.30;;;;;;;13.00;92.53;100744.50;4945582;28;20415;-79
2021/12/30 07:48:05;;;;;;;1.43;0.30;;;;;;;13.02;92.32;100754.03;4945492;28;20964;-79
2021/12/30 07:50:30;;;;;;;2.00;0.70;;;;;;;13.03;92.92;100749.44;4962788;28;20416;-79
2021/12/30 07:52:56;;;;;;;0.10;0.10;;;;;;;13.03;93.19;100757.59;4954753;28;20410;-78
2021/12/30 07:55:21;;;;;;;1.30;0.20;;;;;;;13.02;92.88;100755.94;4957891;28;20425;-79
2021/12/30 07:57:47;;;;;;;0.70;0.20;;;;;;;12.99;93.43;100762.72;4954620;28;20841;-79
2021/12/30 08:00:15;;;;;;;1.10;0.30;;;;;;;12.97;93.45;100761.31;4960156;28;20925;-79
2021/12/30 08:02:42;;;;;;;0.40;0.10;;;;;;;12.95;94.18;100767.00;4957780;28;20512;-79
2021/12/30 08:05:10;;;;;;;1.25;0.35;;;;;;;12.98;94.28;100774.66;4954258;28;20900;-79
2021/12/30 08:07:36;;;;;;;1.60;0.70;;;;;;;12.93;94.13;100763.72;4956145;28;20410;-78
2021/12/30 08:10:01;;;;;;;11.43;1.30;;;;;;;12.90;94.15;100766.13;4956806;29;20400;-79
2021/12/30 08:12:26;;;;;;;0.80;0.77;;;;;;;12.93;94.30;100768.34;4948348;29;20411;-79
2021/12/30 08:14:51;;;;;;;0.70;0.70;;;;;;;12.89;94.61;100768.03;4942338;28;20422;-78
2021/12/30 08:17:17;;;;;;;2.60;1.10;;;;;;;12.87;94.88;100767.47;4948679;28;20421;-77
2021/12/30 08:19:43;;;;;;;3.03;1.27;;;;;;;12.86;94.75;100764.97;4950836;29;20875;-79
2021/12/30 08:22:09;;;;;;;0.80;0.75;;;;;;;12.84;94.82;100764.44;4962098;28;20418;-78
2021/12/30 08:24:34;;;;;;;3.20;0.70;;;;;;;12.86;95.50;100754.09;4956448;29;20434;-78
2021/12/30 08:26:59;;;;;;;1.13;0.70;;;;;;;12.87;95.38;100762.03;4956711;28;20416;-79
2021/12/30 08:29:26;;;;;;;2.70;0.90;;;;;;;12.84;95.29;100762.50;4952574;29;20464;-79
2021/12/30 08:31:51;;;;;;;2.20;0.47;;;;;;;12.86;95.31;100765.81;4939380;28;20409;-79
2021/12/30 08:34:16;;;;;;;1.30;0.50;;;;;;;12.93;94.92;100765.63;4956396;29;20460;-78
2021/12/30 08:36:42;;;;;;;1.00;0.50;;;;;;;12.91;94.99;100757.69;4951891;29;20413;-79
2021/12/30 08:39:07;;;;;;;2.13;0.70;;;;;;;12.94;95.17;100754.47;4949851;28;20465;-79
2021/12/30 08:41:32;;;;;;;2.53;0.50;;;;;;;13.00;95.07;100756.19;4955785;29;20405;-78
2021/12/30 08:43:58;;;;;;;0.90;0.50;;;;;;;13.01;95.08;100760.56;4955777;29;20414;-79
2021/12/30 08:46:23;;;;;;;3.03;0.80;;;;;;;13.06;94.80;100761.69;4956117;28;20410;-80
2021/12/30 08:48:48;;;;;;;1.40;0.43;;;;;;;13.09;94.57;100767.47;4959752;28;20489;-80
2021/12/30 08:51:14;;;;;;;0.60;0.60;;;;;;;13.11;94.25;100765.31;4942871;28;20784;-80
2021/12/30 08:53:40;;;;;;;1.48;0.50;;;;;;;13.13;94.41;100771.34;4960973;28;20861;-80
2021/12/30 08:56:08;;;;;;;0.50;0.30;;;;;;;13.18;94.30;100757.78;4958865;28;20412;-79
2021/12/30 08:58:34;;;;;;;1.13;0.50;;;;;;;13.24;93.75;100764.94;4957172;28;20421;-79
2021/12/30 09:00:59;;;;;;;2.40;0.43;;;;;;;13.32;93.28;100759.03;4954053;28;20924;-76
2021/12/30 09:03:25;;;;;;;0.97;0.60;;;;;;;13.41;92.99;100765.66;4958923;28;20420;-77
2021/12/30 09:05:50;;;;;;;0.50;0.50;;;;;;;13.46;92.70;100763.03;4948436;28;20422;-79
2021/12/30 09:08:15;;;;;;;1.30;0.30;;;;;;;13.56;92.35;100772.38;4935825;29;20470;-79
2021/12/30 09:10:45;;;;;;;0.53;0.53;;;;;;;13.63;92.09;100773.81;4952409;28;20935;-78
2021/12/30 09:13:11;;;;;;;1.55;1.45;;;;;;;13.70;91.62;100776.31;4955245;28;20512;-79
2021/12/30 09:15:37;;;;;;;0.50;0.50;;;;;;;13.77;91.60;100776.91;4955072;28;20401;-79
2021/12/30 09:18:05;;;;;;;1.10;1.00;;;;;;;13.88;91.25;100775.94;4948276;28;20561;-79
2021/12/30 09:20:31;;;;;;;1.52;1.42;;;;;;;14.10;90.47;100779.41;4954733;29;20454;-79
2021/12/30 09:22:56;;;;;;;2.97;0.80;;;;;;;14.28;89.36;100776.28;4918909;29;20767;-79
2021/12/30 09:25:24;;;;;;;1.37;0.57;;;;;;;14.36;88.71;100783.16;4938455;28;20512;-79
2021/12/30 09:27:51;;;;;;;0.40;0.40;;;;;;;14.37;88.51;100772.00;4961839;28;20449;-78
2021/12/30 09:30:17;;;;;;;0.50;0.50;;;;;;;14.29;88.85;100769.72;4946470;28;20417;-79
2021/12/30 09:32:44;;;;;;;0.90;0.30;;;;;;;14.29;88.82;100771.66;4952630;28;20501;-79
2021/12/30 09:35:11;;;;;;;1.10;1.02;;;;;;;14.23;88.58;100781.69;4927966;29;20410;-79
2021/12/30 09:37:37;;;;;;;0.75;0.40;;;;;;;14.14;89.03;100788.69;4954092;28;20814;-78
2021/12/30 09:40:04;;;;;;;1.80;1.25;;;;;;;14.21;88.93;100785.75;4937410;29;20885;-78
2021/12/30 09:42:30;;;;;;;0.65;0.65;;;;;;;14.23;88.72;100778.13;4954651;29;20829;-78
2021/12/30 09:44:55;;;;;;;1.67;0.67;;;;;;;14.29;88.54;100801.66;4952209;28;20454;-79
2021/12/30 09:47:21;;;;;;;0.87;0.70;;;;;;;14.40;88.30;100792.47;4954634;28;22575;-79
2021/12/30 09:49:47;;;;;;;1.33;0.60;;;;;;;14.48;87.50;100805.63;4952979;29;20441;-78
2021/12/30 09:52:13;;;;;;;1.30;0.80;;;;;;;14.54;87.34;100810.84;4956323;28;20414;-79
2021/12/30 09:54:39;;;;;;;0.30;0.30;;;;;;;14.52;87.34;100813.00;4954139;29;20426;-79
2021/12/30 09:57:04;;;;;;;0.70;0.50;;;;;;;14.44;87.33;100813.50;4951594;29;20862;-79
2021/12/30 09:59:31;;;;;;;1.17;0.60;;;;;;;14.53;87.65;100811.94;4954458;28;20807;-79
2021/12/30 10:01:57;;;;;;;0.90;0.50;;;;;;;14.49;87.59;100823.59;4953283;28;20413;-79
2021/12/30 10:04:31;;;;;;;0.90;0.90;;;;;;;14.52;87.34;100832.09;4954303;28;20417;-79
2021/12/30 10:06:58;;;;;;;0.70;0.70;;;;;;;14.67;87.39;100825.09;4954724;29;20751;-79
2021/12/30 10:09:39;;;;;;;3.55;1.98;;;;;;;14.70;86.67;100822.69;4954847;28;20966;-79
2021/12/30 10:12:05;;;;;;;2.47;1.73;;;;;;;14.71;86.46;100827.06;4950542;29;20502;-79
2021/12/30 10:14:36;;;;;;;4.43;2.60;;;;;;;14.65;86.44;100828.13;4952892;28;20945;-78
2021/12/30 10:17:21;;;;;;;1.13;0.80;;;;;;;14.58;86.58;100829.41;4951324;28;20414;-79
2021/12/30 10:19:48;;;;;;;5.28;2.95;;;;;;;14.51;87.09;100825.03;4953200;28;20413;-79
2021/12/30 10:22:16;;;;;;;1.98;1.42;;;;;;;14.47;87.25;100825.78;4954419;29;20394;-79
2021/12/30 10:24:42;;;;;;;1.65;1.35;;;;;;;14.49;87.28;100829.06;4934676;29;20951;-78
2021/12/30 10:27:08;;;;;;;3.75;2.42;;;;;;;14.42;87.34;100825.78;4954360;29;20410;-79
2021/12/30 10:29:44;;;;;;;1.30;0.80;;;;;;;14.33;87.58;100825.41;4954130;29;20957;-78
2021/12/30 10:32:18;;;;;;;2.88;2.30;;;;;;;14.25;87.91;100823.16;4931621;29;21028;-79
2021/12/30 10:35:04;;;;;;;0.75;0.70;;;;;;;14.27;87.89;100823.69;4953119;29;20402;-79
2021/12/30 10:37:30;;;;;;;0.88;0.80;;;;;;;14.29;87.76;100826.97;4953802;28;20410;-79
2021/12/30 10:39:55;;;;;;;2.10;1.30;;;;;;;14.39;87.66;100826.28;4951503;28;20418;-78
2021/12/30 10:42:21;;;;;;;0.83;0.80;;;;;;;14.43;87.22;100827.38;4948109;28;20418;-78
2021/12/30 10:44:51;;;;;;;1.88;1.40;;;;;;;14.42;86.88;100839.41;4949920;29;20425;-78
2021/12/30 10:47:18;;;;;;;2.50;1.73;;;;;;;14.32;87.10;100825.66;4951262;28;20505;-79
2021/12/30 10:49:54;;;;;;;3.25;1.90;;;;;;;14.25;87.62;100830.50;4948992;28;20428;-79
2021/12/30 10:52:20;;;;;;;0.50;0.50;;;;;;;14.24;87.71;100823.41;4942457;29;20423;-78
2021/12/30 10:54:45;;;;;;;0.93;0.93;;;;;;;14.24;87.35;100817.94;4949267;28;20433;-78
2021/12/30 10:57:12;;;;;;;1.60;0.60;;;;;;;14.17;87.53;100814.59;4953368;29;20508;-77
2021/12/30 10:59:40;;;;;;;0.75;0.35;;;;;;;14.14;87.78;100821.41;4947790;28;20425;-77
2021/12/30 11:02:17;;;;;;;0.40;0.40;;;;;;;14.12;87.61;100822.75;4951123;28;20421;-79
2021/12/30 11:05:00;;;;;;;1.75;0.60;;;;;;;14.09;87.77;100817.81;4939606;29;20426;-78
2021/12/30 11:07:43;;;;;;;0.90;0.85;;;;;;;14.10;87.89;100808.53;4952894;28;20393;-78
2021/12/30 11:10:10;;;;;;;0.32;0.28;;;;;;;14.13;87.76;100808.84;4953464;29;20398;-78
2021/12/30 11:12:38;;;;;;;0.65;0.30;;;;;;;14.14;87.56;100807.78;4946062;28;20418;-79
2021/12/30 11:15:23;;;;;;;0.30;0.30;;;;;;;14.19;87.08;100807.84;4935193;29;20445;-79
2021/12/30 11:17:49;;;;;;;0.30;0.30;;;;;;;14.20;87.39;100800.44;4953476;29;20394;-79
2021/12/30 11:20:17;;;;;;;1.30;0.47;;;;;;;14.16;87.67;100802.88;4953490;29;20805;-79
2021/12/30 11:22:43;;;;;;;0.60;0.50;;;;;;;14.16;87.65;100804.81;4952995;29;20414;-78
2021/12/30 11:25:11;;;;;;;0.30;0.30;;;;;;;14.14;87.36;100806.94;4952211;28;20899;-79
2021/12/30 11:27:37;;;;;;;0.40;0.40;;;;;;;14.12;87.42;100801.78;4948964;28;20417;-79